Ashland, Wisconsin
Current Conditions -  °F | °C
As of 5:53 AM on Monday 20 Oct 2014 (Local Time) from KASX Reporting Station
Overcast Overcast  
Wind Chill: 45°   Ceiling: 4200
Heat Index: 45°   Visibility: 10mi
Dew Point: 42°   Wind: 3mph
Humidity: 90%   Direction: 230°SW
Pressure: 29.87"   Gusts: NA
Location:  46.59°N, 90.89°W
Report Text: KASX 201053Z AUTO 23003KT 10SM OVC042 07/06 A2987 RMK AO2 SLP120 T00720056
Loading
Personal Weather Stations






























Interactive Weather Map New forecast layout! Learn more

10-Day Weather Forecast

Advertisements
Track Severe Weather on mobile